Kisarazu Airport Kisarazu JP
ICAO: RJTK
IATA:
Category: Medium
Scheduled Services:

Elevation: 10 ft
TransAlt. 0 ft.

Airport Communications:
TOKYO APP:119.1
TWR:126.2

RJTK Zoom In..

If you have problems with the map follow the link
https://www.worldairports.se/pages/airport.php?
ICAO=RJTK

Runways:

Location; RJTK
Day. 22 / Time. 05.24 Zulu
* Altimeter: 30.02
* Temperature: 12° c. 53.6°f.
* Wind from: 090° Speed 06 kn.
Dewpoint: 05° c.
Visibility: 10 km or more.
Clouds: Few 3000 ft.
Clouds: Scattered 5000 ft.
Clouds: Broken 6000 ft.
Conditions: Light Rain.

RJTK 220524Z 09006KT 9999 -RA FEW030 SCT050 BKN060 12/05 Q1016 RMK 1CU030 3SC050 6SC060 A3002


Wind From 090°
Speed 06 kn.

 
 
jpsmedia.com for Web Design worldairports.se 2019   terms of use